Time;durP1;ratioP1;P1;durP2;ratioP2;P2;SDS_P1;SDS_P2;PMS_P1;PMS_P2;Temp;Humidity;BMP_temperature;BMP_pressure;BME280_temperature;BME280_humidity;BME280_pressure;Samples;Min_cycle;Max_cycle;Signal;HPM_P1;HPM_P2
2023/03/23 00:00:02;;;;;;;12.70;9.00;;;;;;;9.58;69.74;96300.55;109285;1271;24182;-82
2023/03/23 00:02:35;;;;;;;13.20;8.80;;;;;;;9.57;69.71;96295.15;109412;1271;22612;-82
2023/03/23 00:05:11;;;;;;;14.40;9.00;;;;;;;9.54;69.79;96300.45;107835;1271;2054502;-83
2023/03/23 00:07:44;;;;;;;12.60;8.90;;;;;;;9.55;69.80;96296.80;109392;1269;23915;-83
2023/03/23 00:10:20;;;;;;;14.10;9.60;;;;;;;9.54;69.86;96292.73;109423;1269;22511;-83
2023/03/23 00:13:02;;;;;;;13.30;10.10;;;;;;;9.55;69.78;96295.63;109379;1271;23804;-83
2023/03/23 00:15:35;;;;;;;12.00;9.30;;;;;;;9.54;69.73;96298.27;109307;1266;100039;-83
2023/03/23 00:18:21;;;;;;;11.90;9.50;;;;;;;9.56;69.90;96300.75;109393;1271;22487;-83
2023/03/23 00:21:01;;;;;;;10.60;7.80;;;;;;;9.58;69.80;96294.67;109383;1263;22624;-82
2023/03/23 00:23:32;;;;;;;12.50;9.50;;;;;;;9.59;69.78;96291.92;109405;1266;22552;-83
2023/03/23 00:26:09;;;;;;;12.70;10.00;;;;;;;9.59;69.77;96288.15;107842;1263;2091176;-83
2023/03/23 00:28:42;;;;;;;12.70;9.70;;;;;;;9.58;69.84;96293.14;109389;1271;24304;-83
2023/03/23 00:31:16;;;;;;;10.90;8.30;;;;;;;9.53;69.81;96295.38;109357;1271;22545;-83
2023/03/23 00:34:00;;;;;;;12.90;9.70;;;;;;;9.52;69.88;96291.16;107822;1262;1887814;-83
2023/03/23 00:36:44;;;;;;;14.70;10.10;;;;;;;9.51;69.91;96294.41;109253;1266;22679;-83
2023/03/23 00:39:24;;;;;;;12.90;9.00;;;;;;;9.48;69.98;96290.89;109388;1269;22511;-83
2023/03/23 00:42:01;;;;;;;14.70;10.90;;;;;;;9.46;70.11;96288.11;109400;1271;22522;-83
2023/03/23 00:44:48;;;;;;;15.50;10.20;;;;;;;9.45;70.16;96284.20;107904;1271;2026590;-84
2023/03/23 00:47:20;;;;;;;12.80;9.30;;;;;;;9.44;70.33;96274.10;109295;1271;24230;-83
2023/03/23 00:50:06;;;;;;;13.40;9.50;;;;;;;9.44;70.32;96272.16;109399;1271;24218;-83
2023/03/23 00:52:37;;;;;;;13.60;9.80;;;;;;;9.42;70.41;96261.83;109256;1271;22521;-83
2023/03/23 00:55:21;;;;;;;11.80;8.80;;;;;;;9.41;70.40;96262.95;109208;1272;95667;-83
2023/03/23 00:57:54;;;;;;;14.80;9.50;;;;;;;9.42;70.53;96263.89;109384;1271;22504;-81
2023/03/23 01:00:30;;;;;;;12.70;8.50;;;;;;;9.45;70.58;96261.50;109409;1259;22589;-83
2023/03/23 01:03:04;;;;;;;12.30;8.20;;;;;;;9.46;70.59;96256.89;109402;1271;22864;-83
2023/03/23 01:05:40;;;;;;;13.40;9.50;;;;;;;9.46;70.50;96256.57;109384;1268;70410;-83
2023/03/23 01:08:12;;;;;;;13.00;9.50;;;;;;;9.46;70.56;96252.65;109424;1271;22540;-83
2023/03/23 01:10:43;;;;;;;12.20;9.50;;;;;;;9.47;70.59;96248.84;109412;1271;22663;-83
2023/03/23 01:13:19;;;;;;;13.40;10.00;;;;;;;9.52;70.59;96250.11;109474;1271;22508;-82
2023/03/23 01:15:58;;;;;;;11.90;7.90;;;;;;;9.57;70.51;96248.41;109331;1269;113375;-83
2023/03/23 01:18:36;;;;;;;13.20;9.50;;;;;;;9.60;70.27;96245.80;109430;1269;22525;-83
2023/03/23 01:21:10;;;;;;;11.30;9.40;;;;;;;9.59;70.25;96238.77;109506;1270;22520;-82
2023/03/23 01:23:48;;;;;;;11.90;8.80;;;;;;;9.57;70.28;96242.07;109404;1271;24217;-83
2023/03/23 01:26:21;;;;;;;12.90;10.20;;;;;;;9.59;70.23;96246.71;109433;1271;22606;-83
2023/03/23 01:28:58;;;;;;;13.20;9.40;;;;;;;9.60;70.23;96246.06;109380;1271;25423;-83
2023/03/23 01:31:36;;;;;;;11.60;8.10;;;;;;;9.59;70.11;96242.89;109398;1271;22564;-84
2023/03/23 01:34:11;;;;;;;10.60;7.90;;;;;;;9.58;70.24;96243.65;107810;1270;2098849;-83
2023/03/23 01:36:57;;;;;;;10.50;7.30;;;;;;;9.58;70.26;96243.48;109357;1271;22459;-83
2023/03/23 01:39:38;;;;;;;13.40;9.00;;;;;;;9.58;70.19;96241.33;109260;1271;22522;-83
2023/03/23 01:42:14;;;;;;;12.20;9.30;;;;;;;9.57;70.31;96241.01;109398;1272;22528;-82
2023/03/23 01:45:28;;;;;;;11.80;8.60;;;;;;;9.56;70.32;96241.75;108130;1271;1732269;-83
2023/03/23 01:48:20;;;;;;;12.10;8.40;;;;;;;9.56;70.34;96246.77;109208;1271;22626;-83
2023/03/23 01:51:00;;;;;;;11.30;8.70;;;;;;;9.57;70.35;96245.49;109243;1267;22615;-82
2023/03/23 01:53:42;;;;;;;12.80;8.80;;;;;;;9.58;70.25;96240.48;109322;1267;22575;-82
2023/03/23 01:56:27;;;;;;;13.70;8.40;;;;;;;9.60;70.32;96239.98;109200;1269;113157;-82
2023/03/23 01:59:07;;;;;;;10.80;8.20;;;;;;;9.60;70.32;96236.64;109310;1269;23268;-83
2023/03/23 02:01:45;;;;;;;11.90;8.60;;;;;;;9.59;70.32;96238.50;109291;1272;22459;-84
2023/03/23 02:04:26;;;;;;;10.50;8.10;;;;;;;9.60;70.31;96238.28;107883;1272;1911959;-84
2023/03/23 02:07:04;;;;;;;11.30;8.70;;;;;;;9.60;70.25;96234.36;109312;1272;22633;-83
2023/03/23 02:09:43;;;;;;;11.20;8.20;;;;;;;9.58;70.37;96231.32;109428;1271;23203;-82
2023/03/23 02:12:18;;;;;;;11.40;8.90;;;;;;;9.56;70.36;96236.14;109390;1264;23193;-84
2023/03/23 02:15:16;;;;;;;11.80;8.40;;;;;;;9.55;70.49;96228.69;109302;1269;80201;-83
2023/03/23 02:18:00;;;;;;;12.40;8.90;;;;;;;9.57;70.55;96233.55;109362;1268;22562;-83
2023/03/23 02:21:00;;;;;;;10.50;8.10;;;;;;;9.61;70.39;96235.80;109331;1271;23874;-83
2023/03/23 02:24:17;;;;;;;10.70;7.60;;;;;;;9.62;70.31;96240.11;109354;1270;23909;-83
2023/03/23 02:27:05;;;;;;;13.70;8.90;;;;;;;9.60;70.30;96243.84;108824;1277;22530;-83
2023/03/23 02:30:09;;;;;;;11.10;8.50;;;;;;;9.59;70.30;96232.84;108811;1275;22939;-83
2023/03/23 02:33:00;;;;;;;12.40;8.30;;;;;;;9.57;70.33;96236.39;109237;1269;22511;-84
2023/03/23 02:35:45;;;;;;;11.90;8.00;;;;;;;9.53;70.33;96238.49;109047;1272;148298;-82
2023/03/23 02:38:23;;;;;;;11.60;8.80;;;;;;;9.52;70.40;96238.14;109391;1271;22459;-82
2023/03/23 02:41:02;;;;;;;12.20;8.20;;;;;;;9.53;70.52;96235.54;109390;1272;25427;-84
2023/03/23 02:43:49;;;;;;;10.00;8.10;;;;;;;9.54;70.52;96239.27;109412;1271;23067;-83
2023/03/23 02:46:26;;;;;;;10.00;7.30;;;;;;;9.52;70.56;96238.08;108019;1271;1829083;-83
2023/03/23 02:49:03;;;;;;;11.40;7.90;;;;;;;9.53;70.53;96240.52;109430;1270;22463;-84
2023/03/23 02:51:46;;;;;;;12.50;8.30;;;;;;;9.50;70.55;96240.17;109384;1268;22536;-85
2023/03/23 02:54:22;;;;;;;12.60;8.70;;;;;;;9.50;70.60;96240.86;105931;1271;4388730;-83
2023/03/23 02:56:58;;;;;;;12.30;8.50;;;;;;;9.49;70.57;96240.29;109258;1270;22582;-83
2023/03/23 02:59:33;;;;;;;10.90;8.30;;;;;;;9.47;70.66;96240.00;109413;1266;23324;-83
2023/03/23 03:02:12;;;;;;;11.80;8.90;;;;;;;9.46;70.62;96244.83;109356;1271;23823;-84
2023/03/23 03:04:59;;;;;;;10.00;7.10;;;;;;;9.45;70.64;96242.52;107901;1270;2067093;-83
2023/03/23 03:07:52;;;;;;;11.20;7.90;;;;;;;9.43;70.75;96238.48;109388;1270;22508;-83
2023/03/23 03:10:32;;;;;;;12.30;8.60;;;;;;;9.42;70.80;96236.27;109476;1271;22448;-84
2023/03/23 03:13:12;;;;;;;10.20;8.40;;;;;;;9.41;70.79;96236.38;109309;1269;23846;-84
2023/03/23 03:15:53;;;;;;;11.60;8.40;;;;;;;9.41;70.81;96234.37;109351;1269;82509;-84
2023/03/23 03:18:30;;;;;;;10.00;8.00;;;;;;;9.41;70.80;96241.41;109369;1271;22525;-85
2023/03/23 03:21:14;;;;;;;10.70;8.00;;;;;;;9.43;70.89;96236.80;109354;1269;22560;-84
2023/03/23 03:23:55;;;;;;;11.10;7.70;;;;;;;9.46;70.89;96238.84;109426;1264;22552;-83
2023/03/23 03:26:36;;;;;;;11.30;8.00;;;;;;;9.52;70.78;96234.95;105878;1271;4618979;-84
2023/03/23 03:29:13;;;;;;;9.70;7.50;;;;;;;9.55;70.55;96235.14;109394;1264;22521;-84
2023/03/23 03:31:50;;;;;;;11.60;7.40;;;;;;;9.56;70.49;96229.95;109278;1271;23802;-82
2023/03/23 03:34:27;;;;;;;12.60;8.20;;;;;;;9.53;70.53;96229.27;109413;1272;22528;-84
2023/03/23 03:37:05;;;;;;;10.60;7.50;;;;;;;9.50;70.51;96226.83;109404;1271;22581;-83
2023/03/23 03:39:42;;;;;;;9.10;7.00;;;;;;;9.50;70.66;96228.27;109252;1272;22666;-83
2023/03/23 03:42:16;;;;;;;10.00;7.40;;;;;;;9.53;70.64;96228.23;109426;1271;24200;-83
2023/03/23 03:44:59;;;;;;;11.00;6.50;;;;;;;9.55;70.50;96226.72;105196;1272;5505291;-83
2023/03/23 03:47:36;;;;;;;9.50;6.80;;;;;;;9.51;70.50;96230.73;109250;1272;22616;-83
2023/03/23 03:50:11;;;;;;;10.10;7.00;;;;;;;9.50;70.66;96228.73;109494;1272;24618;-83
2023/03/23 03:52:48;;;;;;;8.60;6.90;;;;;;;9.49;70.63;96226.73;109382;1270;25414;-82
2023/03/23 03:55:20;;;;;;;8.80;6.80;;;;;;;9.47;70.64;96224.97;109374;1272;44784;-82
2023/03/23 03:57:51;;;;;;;10.90;7.30;;;;;;;9.45;70.56;96225.14;108953;1271;661267;-85
2023/03/23 04:00:23;;;;;;;10.50;8.00;;;;;;;9.48;70.52;96229.14;109374;1264;22528;-82
2023/03/23 04:02:54;;;;;;;10.30;5.40;;;;;;;9.44;70.51;96233.35;109405;1271;22519;-84
2023/03/23 04:05:28;;;;;;;9.50;5.40;;;;;;;9.47;70.50;96225.17;109343;1264;76898;-83
2023/03/23 04:08:01;;;;;;;9.40;5.50;;;;;;;9.60;70.34;96225.25;109354;1264;22575;-83
2023/03/23 04:10:35;;;;;;;9.20;6.20;;;;;;;9.68;69.96;96227.22;109411;1269;22536;-83
2023/03/23 04:13:11;;;;;;;10.50;6.50;;;;;;;9.73;69.68;96217.23;109397;1271;22521;-84
2023/03/23 04:15:49;;;;;;;9.10;5.10;;;;;;;9.78;69.38;96218.60;109354;1269;52841;-83
2023/03/23 04:18:36;;;;;;;8.40;5.80;;;;;;;9.82;69.19;96229.23;109397;1271;25980;-84
2023/03/23 04:21:09;;;;;;;;;;;;;;;9.82;69.00;96232.73;109414;1264;22461;-84
2023/03/23 04:23:43;;;;;;;10.60;6.00;;;;;;;9.86;68.89;96233.23;109367;1271;22480;-83
2023/03/23 04:26:32;;;;;;;8.60;6.40;;;;;;;9.83;68.90;96222.61;109394;1272;53183;-84
2023/03/23 04:29:08;;;;;;;9.60;6.90;;;;;;;9.83;68.73;96231.13;109370;1271;24255;-83
2023/03/23 04:31:44;;;;;;;10.40;7.00;;;;;;;9.82;68.78;96229.61;109372;1264;22535;-83
2023/03/23 04:34:21;;;;;;;9.00;6.80;;;;;;;9.77;68.78;96227.88;109400;1270;22638;-82
2023/03/23 04:36:52;;;;;;;9.30;7.10;;;;;;;9.73;68.89;96227.57;109305;1269;96626;-83
2023/03/23 04:39:34;;;;;;;8.10;6.10;;;;;;;9.71;69.02;96230.96;109188;1272;24180;-83
2023/03/23 04:42:09;;;;;;;9.50;5.90;;;;;;;9.68;69.10;96230.19;109356;1271;22525;-82
2023/03/23 04:44:53;;;;;;;8.30;5.70;;;;;;;9.66;69.04;96227.89;109304;1267;52307;-81
2023/03/23 04:47:32;;;;;;;10.20;6.60;;;;;;;9.67;69.12;96224.54;109212;1271;22539;-82
2023/03/23 04:50:06;;;;;;;8.40;6.40;;;;;;;9.67;69.05;96232.05;109274;1264;22473;-83
2023/03/23 04:52:44;;;;;;;9.50;6.50;;;;;;;9.70;69.08;96233.34;109376;1272;22551;-83
2023/03/23 04:55:20;;;;;;;8.10;6.00;;;;;;;9.76;69.13;96233.87;107607;1264;2330808;-83
2023/03/23 04:57:51;;;;;;;8.90;6.00;;;;;;;9.82;68.99;96234.05;109597;1270;22525;-83
2023/03/23 05:00:23;;;;;;;9.70;6.70;;;;;;;9.81;68.90;96234.81;109382;1269;22511;-82
2023/03/23 05:02:55;;;;;;;9.90;6.70;;;;;;;9.83;68.90;96235.95;109357;1264;22706;-82
2023/03/23 05:05:35;;;;;;;10.10;7.10;;;;;;;9.84;68.82;96234.77;109290;1271;77436;-83
2023/03/23 05:08:08;;;;;;;7.40;5.40;;;;;;;9.86;68.80;96238.41;109371;1264;22469;-83
2023/03/23 05:10:39;;;;;;;8.20;6.70;;;;;;;9.96;68.71;96230.88;109431;1271;22636;-83
2023/03/23 05:13:13;;;;;;;7.70;6.20;;;;;;;10.18;68.58;96236.77;109512;1270;22548;-83
2023/03/23 05:15:44;;;;;;;8.60;5.80;;;;;;;10.54;67.82;96230.68;109238;1270;156063;-84
2023/03/23 05:18:16;;;;;;;7.60;6.10;;;;;;;10.87;66.98;96228.18;109406;1264;23872;-83
2023/03/23 05:21:00;;;;;;;8.70;6.60;;;;;;;11.06;66.33;96228.05;109348;1270;22558;-82
2023/03/23 05:23:36;;;;;;;9.30;6.70;;;;;;;11.25;65.68;96235.60;109371;1264;23770;-83
2023/03/23 05:26:07;;;;;;;8.90;6.40;;;;;;;11.12;65.14;96231.41;109294;1270;104511;-83
2023/03/23 05:28:43;;;;;;;7.80;6.10;;;;;;;10.91;65.00;96237.63;109373;1271;23793;-82
2023/03/23 05:31:16;;;;;;;8.20;6.60;;;;;;;10.77;65.22;96227.88;109361;1271;23851;-83
2023/03/23 05:33:48;;;;;;;8.90;6.70;;;;;;;10.72;65.52;96225.73;109372;1271;22511;-83
2023/03/23 05:36:27;;;;;;;8.30;6.10;;;;;;;10.73;65.67;96229.26;109398;1270;112185;-82
2023/03/23 05:38:59;;;;;;;7.80;5.70;;;;;;;10.83;65.62;96238.77;109548;1270;22619;-83
2023/03/23 05:41:41;;;;;;;9.10;6.30;;;;;;;11.10;65.12;96233.83;109424;1270;22458;-83
2023/03/23 05:44:19;;;;;;;7.60;6.10;;;;;;;11.43;64.46;96224.08;109332;1272;22517;-82
2023/03/23 05:46:51;;;;;;;8.40;6.10;;;;;;;11.64;63.70;96224.50;109264;1267;58166;-81
2023/03/23 05:49:24;;;;;;;9.40;6.80;;;;;;;11.66;63.52;96225.58;109168;1265;22531;-81
2023/03/23 05:52:00;;;;;;;8.00;5.60;;;;;;;11.86;63.15;96230.70;109157;1266;22561;-81
2023/03/23 05:54:49;;;;;;;8.50;5.50;;;;;;;12.27;62.68;96233.61;109344;1267;24003;-80
2023/03/23 05:57:24;;;;;;;8.60;5.90;;;;;;;12.75;62.15;96230.70;109306;1272;22502;-81
2023/03/23 06:00:11;;;;;;;5.90;5.10;;;;;;;13.22;61.20;96236.97;109359;1267;22563;-80
2023/03/23 06:02:48;;;;;;;7.00;5.30;;;;;;;13.67;60.13;96236.80;109280;1272;23924;-81
2023/03/23 06:05:28;;;;;;;9.30;5.90;;;;;;;13.93;58.69;96234.17;109290;1271;61892;-80
2023/03/23 06:08:13;;;;;;;8.20;5.70;;;;;;;13.99;58.09;96223.15;109310;1267;22597;-81
2023/03/23 06:10:48;;;;;;;8.10;5.80;;;;;;;14.01;57.32;96224.16;109284;1272;22521;-80
2023/03/23 06:13:23;;;;;;;7.50;5.90;;;;;;;14.22;57.07;96225.64;109224;1272;24289;-80
2023/03/23 06:15:59;;;;;;;7.70;5.40;;;;;;;14.40;56.64;96217.77;109231;1264;72955;-80
2023/03/23 06:18:36;;;;;;;6.60;5.70;;;;;;;14.66;56.16;96212.48;109170;1272;22550;-80
2023/03/23 06:21:09;;;;;;;8.30;5.50;;;;;;;15.15;55.36;96222.47;109283;1249;23808;-81
2023/03/23 06:23:45;;;;;;;7.20;5.50;;;;;;;15.49;53.53;96224.56;109295;1258;22478;-80
2023/03/23 06:26:21;;;;;;;6.60;5.00;;;;;;;15.58;53.41;96221.66;107831;1266;1871058;-80
2023/03/23 06:29:00;;;;;;;6.30;4.70;;;;;;;15.75;52.48;96227.13;109286;1267;22631;-82
2023/03/23 06:31:49;;;;;;;5.90;4.70;;;;;;;16.30;52.13;96224.34;109291;1266;22601;-81
2023/03/23 06:34:24;;;;;;;5.90;5.00;;;;;;;17.01;50.67;96227.50;109303;1272;23128;-80
2023/03/23 06:37:02;;;;;;;8.40;5.60;;;;;;;17.32;49.56;96226.54;109111;1267;62452;-81
2023/03/23 06:39:40;;;;;;;7.10;5.60;;;;;;;17.55;48.86;96223.86;109293;1264;22657;-81
2023/03/23 06:42:13;;;;;;;6.70;5.50;;;;;;;17.72;47.81;96229.31;109345;1270;22717;-81
2023/03/23 06:45:05;;;;;;;5.90;5.10;;;;;;;17.73;47.44;96235.55;109358;1267;22717;-80
2023/03/23 06:47:48;;;;;;;7.20;5.60;;;;;;;17.79;47.59;96235.42;109311;1250;22612;-80
2023/03/23 06:50:26;;;;;;;6.80;5.20;;;;;;;17.87;46.77;96243.09;109304;1266;24619;-79
2023/03/23 06:53:01;;;;;;;7.90;5.70;;;;;;;17.87;46.37;96245.27;109332;1272;23547;-79
2023/03/23 06:55:32;;;;;;;6.80;5.40;;;;;;;17.75;46.47;96247.08;109282;1269;26484;-78
2023/03/23 06:58:05;;;;;;;7.50;5.70;;;;;;;17.29;46.49;96239.83;109307;1272;23912;-79
2023/03/23 07:00:41;;;;;;;9.00;5.90;;;;;;;17.29;46.77;96239.05;109364;1264;22478;-79
2023/03/23 07:03:14;;;;;;;6.70;5.30;;;;;;;17.29;46.73;96238.52;109226;1272;22898;-80
2023/03/23 07:05:48;;;;;;;6.40;4.90;;;;;;;18.07;46.71;96240.45;107962;1272;1809133;-81
2023/03/23 07:08:32;;;;;;;7.80;5.90;;;;;;;19.24;45.73;96236.64;109322;1266;22511;-81
2023/03/23 07:11:05;;;;;;;7.40;5.40;;;;;;;19.88;44.16;96230.02;109364;1266;23482;-81
2023/03/23 07:13:36;;;;;;;4.90;4.40;;;;;;;20.46;42.84;96228.79;109361;1266;22732;-80
2023/03/23 07:16:10;;;;;;;5.20;4.60;;;;;;;20.78;42.03;96226.88;109253;1266;76552;-81
2023/03/23 07:18:41;;;;;;;4.80;3.80;;;;;;;21.50;43.05;96223.15;109274;1272;22515;-80
2023/03/23 07:21:18;;;;;;;4.10;3.70;;;;;;;22.33;41.28;96224.88;109307;1272;22553;-81
2023/03/23 07:23:59;;;;;;;5.00;3.90;;;;;;;22.51;40.25;96218.34;109338;1270;23806;-82
2023/03/23 07:26:32;;;;;;;4.60;3.50;;;;;;;22.23;39.83;96220.32;109201;1267;60068;-81
2023/03/23 07:29:12;;;;;;;4.70;3.30;;;;;;;22.01;39.70;96224.80;109211;1266;22552;-81
2023/03/23 07:31:45;;;;;;;5.60;3.20;;;;;;;21.61;38.70;96223.66;109278;1272;22516;-81
2023/03/23 07:34:17;;;;;;;4.50;3.80;;;;;;;20.99;39.36;96227.55;109317;1272;22549;-80
2023/03/23 07:36:49;;;;;;;3.60;3.20;;;;;;;21.02;39.63;96236.16;109279;1267;26536;-80
2023/03/23 07:39:25;;;;;;;4.30;3.70;;;;;;;20.71;39.71;96232.66;109312;1272;22468;-79
2023/03/23 07:42:06;;;;;;;;;;;;;;;;;;;;;
2023/03/23 07:44:43;;;;;;;5.10;3.90;;;;;;;19.76;40.67;96229.42;109255;1272;24209;-80
2023/03/23 07:47:14;;;;;;;5.60;4.00;;;;;;;18.96;40.84;96231.66;109200;1267;78096;-79
2023/03/23 07:49:45;;;;;;;5.30;4.20;;;;;;;18.04;42.29;96236.54;109255;1272;22511;-79
2023/03/23 07:52:17;;;;;;;5.50;4.50;;;;;;;17.32;43.51;96231.75;109318;1269;22801;-80
2023/03/23 07:54:54;;;;;;;5.30;4.00;;;;;;;16.79;44.59;96230.92;109236;1272;22667;-80
2023/03/23 07:57:26;;;;;;;5.00;4.30;;;;;;;16.43;45.44;96223.82;109255;1265;37342;-79
2023/03/23 08:00:11;;;;;;;6.40;4.30;;;;;;;16.10;46.19;96222.10;109212;1266;22511;-80
2023/03/23 08:02:48;;;;;;;7.50;5.00;;;;;;;16.08;46.74;96221.79;109247;1264;22537;-80
2023/03/23 08:05:26;;;;;;;5.20;4.20;;;;;;;16.03;46.70;96228.20;109272;1267;56364;-80
2023/03/23 08:07:58;;;;;;;5.70;4.30;;;;;;;15.68;47.02;96227.13;109322;1266;22824;-80
2023/03/23 08:10:33;;;;;;;6.70;4.30;;;;;;;15.26;48.01;96216.61;109388;1272;24201;-80
2023/03/23 08:13:05;;;;;;;6.20;4.30;;;;;;;15.01;48.79;96219.19;109296;1267;24174;-79
2023/03/23 08:15:40;;;;;;;6.90;4.90;;;;;;;14.83;49.14;96216.06;109206;1269;55300;-80
2023/03/23 08:18:13;;;;;;;6.00;4.60;;;;;;;14.75;49.56;96212.79;109292;1272;22553;-80
2023/03/23 08:20:45;;;;;;;6.10;4.40;;;;;;;14.83;49.89;96216.86;109285;1266;22519;-80
2023/03/23 08:23:20;;;;;;;5.70;4.60;;;;;;;15.06;50.00;96216.57;109406;1264;22549;-80
2023/03/23 08:25:54;;;;;;;7.00;5.30;;;;;;;15.33;50.08;96219.27;109257;1269;42870;-80
2023/03/23 08:28:36;;;;;;;7.30;4.50;;;;;;;15.34;49.47;96226.23;109257;1271;22507;-80
2023/03/23 08:31:14;;;;;;;6.40;4.50;;;;;;;15.49;49.74;96225.20;109257;1272;22560;-81
2023/03/23 08:33:49;;;;;;;5.80;4.40;;;;;;;15.96;49.43;96227.27;109327;1266;22521;-79
2023/03/23 08:36:25;;;;;;;5.90;4.50;;;;;;;16.21;48.84;96228.58;109251;1272;90123;-80
2023/03/23 08:38:59;;;;;;;7.70;4.20;;;;;;;16.33;48.46;96232.54;109328;1266;23871;-81
2023/03/23 08:41:34;;;;;;;6.60;4.30;;;;;;;16.97;47.98;96233.33;109376;1271;23716;-81
2023/03/23 08:44:12;;;;;;;5.20;4.00;;;;;;;17.43;46.82;96238.34;109338;1266;22592;-80
2023/03/23 08:46:43;;;;;;;4.70;3.90;;;;;;;18.16;46.32;96231.15;109249;1264;67719;-80
2023/03/23 08:49:14;;;;;;;5.90;3.80;;;;;;;19.33;46.16;96226.61;109374;1266;22531;-81
2023/03/23 08:51:46;;;;;;;4.80;3.60;;;;;;;20.61;44.25;96225.34;109629;1271;22511;-80
2023/03/23 08:54:20;;;;;;;5.00;3.40;;;;;;;21.23;42.18;96220.57;109624;1265;23248;-81
2023/03/23 08:56:54;;;;;;;4.10;3.00;;;;;;;20.94;41.27;96214.52;109373;1266;31539;-80
2023/03/23 08:59:29;;;;;;;3.40;2.60;;;;;;;20.15;39.89;96206.98;109453;1269;25437;-80
2023/03/23 09:02:00;;;;;;;4.40;3.60;;;;;;;18.83;40.00;96212.83;109451;1266;22508;-80
2023/03/23 09:04:31;;;;;;;3.50;3.00;;;;;;;17.69;41.30;96225.71;109564;1272;22520;-80
2023/03/23 09:07:03;;;;;;;5.80;3.30;;;;;;;17.00;42.23;96221.36;109303;1266;72884;-80
2023/03/23 09:09:35;;;;;;;4.70;3.30;;;;;;;16.36;43.03;96223.87;109342;1266;22465;-80
2023/03/23 09:12:08;;;;;;;4.60;3.00;;;;;;;16.02;44.28;96227.77;109285;1272;25418;-80
2023/03/23 09:14:42;;;;;;;4.50;2.60;;;;;;;15.97;44.66;96226.50;109301;1266;22530;-80
2023/03/23 09:17:14;;;;;;;4.50;3.00;;;;;;;15.91;44.95;96229.14;109319;1266;27081;-80
2023/03/23 09:19:45;;;;;;;7.30;3.50;;;;;;;15.88;45.18;96228.51;109238;1269;23685;-81
2023/03/23 09:22:23;;;;;;;5.40;2.80;;;;;;;15.88;45.48;96233.45;109342;1251;22531;-80
2023/03/23 09:24:54;;;;;;;5.90;3.20;;;;;;;15.86;45.65;96229.70;109358;1266;22546;-80
2023/03/23 09:27:28;;;;;;;3.80;3.30;;;;;;;15.80;45.65;96229.61;109305;1266;53472;-79
2023/03/23 09:30:00;;;;;;;4.60;3.20;;;;;;;15.73;46.29;96231.71;109315;1266;22458;-81
2023/03/23 09:32:33;;;;;;;4.30;3.10;;;;;;;15.72;46.18;96225.42;109259;1266;22601;-81
2023/03/23 09:35:07;;;;;;;3.20;2.60;;;;;;;15.77;46.50;96230.52;109414;1266;24970;-79
2023/03/23 09:37:39;;;;;;;4.60;3.10;;;;;;;15.75;46.07;96225.67;109269;1266;91352;-79
2023/03/23 09:40:18;;;;;;;3.70;2.80;;;;;;;15.71;45.71;96228.73;109284;1271;22483;-80
2023/03/23 09:43:02;;;;;;;3.10;2.80;;;;;;;15.73;45.98;96228.09;109362;1272;22495;-82
2023/03/23 09:45:41;;;;;;;4.80;3.20;;;;;;;15.72;46.05;96213.29;109283;1264;102336;-81
2023/03/23 09:48:30;;;;;;;6.10;3.40;;;;;;;15.69;46.08;96223.38;109235;1266;24212;-81
2023/03/23 09:51:05;;;;;;;5.10;3.30;;;;;;;15.66;45.29;96218.52;109234;1271;23264;-82
2023/03/23 09:53:40;;;;;;;4.10;3.00;;;;;;;15.70;45.49;96224.18;109345;1272;23218;-82
2023/03/23 09:56:17;;;;;;;4.40;2.20;;;;;;;15.85;45.21;96217.08;109227;1272;46587;-82
2023/03/23 09:58:55;;;;;;;3.80;2.40;;;;;;;15.89;44.98;96209.52;109345;1272;22587;-81
2023/03/23 10:01:37;;;;;;;6.10;3.00;;;;;;;15.92;45.04;96202.09;109394;1267;22550;-81
2023/03/23 10:04:16;;;;;;;4.10;2.60;;;;;;;15.88;44.76;96203.91;109320;1265;22960;-81
2023/03/23 10:07:02;;;;;;;4.00;2.80;;;;;;;15.94;46.00;96212.33;109438;1265;82647;-82
2023/03/23 10:09:35;;;;;;;4.60;3.10;;;;;;;16.16;46.53;96211.40;109349;1272;23183;-81
2023/03/23 10:12:16;;;;;;;5.20;3.40;;;;;;;16.39;45.86;96207.32;109303;1265;22579;-82
2023/03/23 10:15:11;;;;;;;4.30;2.70;;;;;;;16.74;45.94;96204.59;109318;1272;23920;-82
2023/03/23 10:18:01;;;;;;;5.00;3.50;;;;;;;17.11;45.55;96203.76;109292;1266;22555;-81
2023/03/23 10:20:47;;;;;;;6.00;3.00;;;;;;;17.38;45.15;96207.98;109373;1271;22484;-81
2023/03/23 10:23:48;;;;;;;3.60;2.90;;;;;;;17.61;44.11;96195.27;109348;1266;22553;-80
2023/03/23 10:26:48;;;;;;;3.10;2.00;;;;;;;17.93;44.03;96196.87;109259;1266;126922;-80
2023/03/23 10:29:34;;;;;;;4.70;2.90;;;;;;;17.82;43.19;96189.64;109238;1271;22527;-80
2023/03/23 10:32:12;;;;;;;3.50;2.30;;;;;;;17.60;40.83;96168.29;109212;1272;22553;-80
2023/03/23 10:34:52;;;;;;;4.40;2.70;;;;;;;17.38;41.15;96183.19;109192;1266;22559;-80
2023/03/23 10:37:36;;;;;;;3.70;2.60;;;;;;;17.48;41.49;96175.70;107710;1266;2074968;-80
2023/03/23 10:40:16;;;;;;;5.30;3.00;;;;;;;17.62;41.83;96181.60;109237;1266;22514;-80
2023/03/23 10:42:54;;;;;;;2.70;1.90;;;;;;;17.73;41.42;96184.20;109387;1266;22559;-80
2023/03/23 10:45:35;;;;;;;4.60;2.80;;;;;;;17.66;39.88;96174.87;109227;1266;119096;-81
2023/03/23 10:48:17;;;;;;;4.80;2.70;;;;;;;17.39;40.18;96181.83;109351;1266;22583;-80
2023/03/23 10:51:05;;;;;;;3.80;1.80;;;;;;;17.39;41.47;96190.27;109277;1271;24899;-80
2023/03/23 10:53:45;;;;;;;3.30;2.20;;;;;;;17.65;40.50;96173.73;109275;1266;22607;-80
2023/03/23 10:56:28;;;;;;;3.90;2.70;;;;;;;17.56;40.12;96169.36;109184;1266;95294;-80
2023/03/23 10:59:12;;;;;;;4.40;3.00;;;;;;;17.56;40.23;96180.87;109239;1272;22518;-81
2023/03/23 11:01:49;;;;;;;3.60;2.50;;;;;;;17.68;41.22;96166.96;109320;1266;22545;-80
2023/03/23 11:04:25;;;;;;;4.50;2.60;;;;;;;17.93;41.55;96164.30;109245;1271;22486;-81
2023/03/23 11:07:06;;;;;;;4.10;2.80;;;;;;;18.10;39.69;96165.89;109167;1271;85036;-81
2023/03/23 11:09:42;;;;;;;5.10;2.90;;;;;;;18.01;38.75;96160.03;109245;1269;25277;-80
2023/03/23 11:12:22;;;;;;;5.00;3.10;;;;;;;17.86;38.19;96159.25;109298;1257;22521;-80
2023/03/23 11:15:18;;;;;;;4.30;2.90;;;;;;;17.63;38.91;96157.88;109334;1272;22461;-79
2023/03/23 11:18:03;;;;;;;3.80;2.70;;;;;;;17.79;39.90;96144.50;109391;1266;23959;-80
2023/03/23 11:20:44;;;;;;;6.30;3.00;;;;;;;17.86;38.91;96145.70;109234;1249;23233;-79
2023/03/23 11:23:22;;;;;;;4.30;2.20;;;;;;;17.80;38.07;96129.73;109225;1269;22535;-79
2023/03/23 11:26:23;;;;;;;4.00;2.60;;;;;;;17.68;38.94;96132.33;109201;1269;56129;-79
2023/03/23 11:29:00;;;;;;;6.00;3.30;;;;;;;17.66;39.94;96149.27;109226;1269;22606;-79
2023/03/23 11:31:36;;;;;;;4.90;2.70;;;;;;;17.64;39.87;96153.88;109254;1265;22578;-80
2023/03/23 11:34:17;;;;;;;3.60;2.00;;;;;;;17.59;39.94;96155.30;109267;1266;22555;-80
2023/03/23 11:36:53;;;;;;;;;;;;;;;17.54;39.82;96160.75;109156;1260;100826;-80
2023/03/23 11:39:32;;;;;;;4.00;2.80;;;;;;;17.57;40.18;96143.06;109275;1271;22515;-80
2023/03/23 11:42:20;;;;;;;4.40;2.50;;;;;;;17.63;40.62;96150.94;109281;1266;24209;-78
2023/03/23 11:44:51;;;;;;;4.70;2.20;;;;;;;17.77;40.19;96138.32;109265;1272;22516;-78
2023/03/23 11:47:31;;;;;;;4.80;2.90;;;;;;;17.87;39.93;96143.80;109167;1266;29798;-77
2023/03/23 11:50:10;;;;;;;5.50;2.80;;;;;;;18.05;40.20;96147.73;109235;1272;24170;-77
2023/03/23 11:52:47;;;;;;;3.20;2.30;;;;;;;18.17;40.21;96146.24;109261;1272;25420;-78
2023/03/23 11:55:22;;;;;;;4.00;2.80;;;;;;;18.19;40.45;96144.72;109203;1272;25411;-79
2023/03/23 11:57:54;;;;;;;5.20;2.60;;;;;;;18.18;39.88;96146.06;109207;1272;22543;-78
2023/03/23 12:00:26;;;;;;;4.20;2.70;;;;;;;18.07;39.99;96151.55;109334;1264;22532;-77
2023/03/23 12:03:06;;;;;;;3.70;2.70;;;;;;;18.04;40.42;96146.36;109280;1272;22523;-76
2023/03/23 12:05:46;;;;;;;4.90;2.50;;;;;;;18.14;40.27;96142.88;109276;1266;23407;-78
2023/03/23 12:08:43;;;;;;;6.50;3.40;;;;;;;18.18;39.96;96142.40;109233;1264;23749;-77
2023/03/23 12:11:23;;;;;;;4.20;2.70;;;;;;;18.19;40.03;96135.00;109285;1272;22524;-77
2023/03/23 12:14:00;;;;;;;;;;;;;;;18.28;40.29;96126.80;109290;1269;22437;-77
2023/03/23 12:16:45;;;;;;;4.40;2.80;;;;;;;18.41;39.60;96130.17;109199;1266;31283;-76